LXGB/GIB METAR and TAF weather

Enter ICAO airport designator
Station Type Date Time Source
LXGB METAR 2024/05/28 23:20 UTC NOAA

LXGB 282320Z AUTO 10014KT 9999 BKN009/// 19/18 Q1019


Station Type Date Time Source
LXGB Decoded METAR 2024/05/28 23:20 UTC NOAA

Gibraltar, Gibraltar (LXGB) 36-09N 005-21W 0M
May 28, 2024 - 07:20 PM EDT / 2024.05.28 2320 UTC
Wind: from the E (100 degrees) at 16 MPH (14 KT):0
Visibility: greater than 7 mile(s):0
Sky conditions: mostly cloudy
Temperature: 66 F (19 C)
Dew Point: 64 F (18 C)
Relative Humidity: 93%
Pressure (altimeter): 30.09 in. Hg (1019 hPa)
ob: LXGB 282320Z AUTO 10014KT 9999 BKN009/// 19/18 Q1019
cycle: 23

Station Type Date Time Source
LXGB TAF 2024/05/02 06:58 UTC NOAA